createdAt,value
2022-11-06T00:00:52.321Z,19.08
2022-11-06T00:03:22.905Z,15.55
2022-11-06T00:06:10.270Z,17.80
2022-11-06T00:08:41.081Z,17.88
2022-11-06T00:11:12.646Z,16.17
2022-11-06T00:13:42.454Z,18.00
2022-11-06T00:16:13.287Z,17.13
2022-11-06T00:19:03.029Z,17.55
2022-11-06T00:21:32.818Z,17.38
2022-11-06T00:24:03.864Z,16.63
2022-11-06T00:26:33.798Z,17.02
2022-11-06T00:29:03.854Z,17.80
2022-11-06T00:31:35.620Z,17.20
2022-11-06T00:34:08.173Z,16.88
2022-11-06T00:36:37.398Z,18.08
2022-11-06T00:39:06.962Z,16.60
2022-11-06T00:41:36.398Z,16.98
2022-11-06T00:44:06.119Z,16.75
2022-11-06T00:46:36.503Z,18.10
2022-11-06T00:49:09.064Z,17.73
2022-11-06T00:51:40.586Z,16.00
2022-11-06T00:54:14.513Z,17.33
2022-11-06T00:56:43.508Z,17.90
2022-11-06T00:59:15.339Z,17.23
2022-11-06T01:01:45.876Z,17.55
2022-11-06T01:04:18.950Z,17.33
2022-11-06T01:06:50.345Z,15.52
2022-11-06T01:09:21.885Z,18.25
2022-11-06T01:12:12.249Z,16.35
2022-11-06T01:14:43.680Z,17.38
2022-11-06T01:17:14.226Z,15.70
2022-11-06T01:19:44.988Z,16.33
2022-11-06T01:22:14.184Z,15.90
2022-11-06T01:24:44.201Z,17.23
2022-11-06T01:27:25.907Z,15.88
2022-11-06T01:29:56.012Z,17.35
2022-11-06T01:32:25.384Z,15.73
2022-11-06T01:34:55.813Z,16.02
2022-11-06T01:37:25.054Z,15.75
2022-11-06T01:39:54.452Z,14.15
2022-11-06T01:42:23.252Z,15.02
2022-11-06T01:45:25.758Z,15.95
2022-11-06T01:47:55.470Z,14.35
2022-11-06T01:50:26.750Z,14.55
2022-11-06T01:52:56.781Z,14.98
2022-11-06T01:55:30.577Z,15.07
2022-11-06T01:58:02.630Z,14.95
2022-11-06T02:00:32.792Z,16.17
2022-11-06T02:03:02.984Z,15.20
2022-11-06T02:05:33.972Z,16.33
2022-11-06T02:08:06.523Z,14.52
2022-11-06T02:10:35.974Z,15.02
2022-11-06T02:13:19.198Z,14.88
2022-11-06T02:15:53.107Z,15.32
2022-11-06T02:18:35.010Z,14.13
2022-11-06T02:21:45.405Z,15.07
2022-11-06T02:24:48.942Z,13.48
2022-11-06T02:27:22.055Z,14.32
2022-11-06T02:30:00.448Z,14.25
2022-11-06T02:32:37.077Z,15.55
2022-11-06T02:35:17.933Z,14.27
2022-11-06T02:37:50.402Z,14.82
2022-11-06T02:40:22.454Z,14.73
2022-11-06T02:42:56.981Z,14.88
2022-11-06T02:45:29.098Z,16.70
2022-11-06T02:48:00.711Z,14.93
2022-11-06T02:50:36.293Z,14.82
2022-11-06T02:53:09.139Z,15.20
2022-11-06T02:55:40.397Z,13.07
2022-11-06T02:58:15.739Z,13.27
2022-11-06T03:00:50.546Z,13.77
2022-11-06T03:03:24.678Z,15.50
2022-11-06T03:05:58.466Z,14.82
2022-11-06T03:11:06.392Z,13.15
2022-11-06T03:14:24.531Z,14.73
2022-11-06T03:16:59.019Z,14.45
2022-11-06T03:19:31.810Z,14.65
2022-11-06T03:22:09.127Z,14.38
2022-11-06T03:24:45.957Z,15.10
2022-11-06T03:27:20.434Z,15.88
2022-11-06T03:29:56.039Z,14.60
2022-11-06T03:32:31.011Z,15.02
2022-11-06T03:35:06.732Z,15.38
2022-11-06T03:37:41.285Z,14.52
2022-11-06T03:40:15.410Z,14.88
2022-11-06T03:42:46.878Z,14.95
2022-11-06T03:45:21.057Z,15.23
2022-11-06T03:47:56.534Z,15.57
2022-11-06T03:50:31.150Z,16.75
2022-11-06T03:53:06.783Z,17.15
2022-11-06T03:55:43.303Z,16.73
2022-11-06T03:58:16.379Z,15.52
2022-11-06T04:00:48.076Z,15.40
2022-11-06T04:03:25.574Z,15.63
2022-11-06T04:05:57.903Z,14.82
2022-11-06T04:08:46.982Z,15.68
2022-11-06T04:11:38.846Z,14.95
2022-11-06T04:14:10.602Z,16.27
2022-11-06T04:16:44.265Z,17.00
2022-11-06T04:19:16.530Z,15.40
2022-11-06T04:22:04.973Z,16.10
2022-11-06T04:25:04.585Z,16.05
2022-11-06T04:27:49.655Z,15.85
2022-11-06T04:30:19.928Z,15.65
2022-11-06T04:33:03.411Z,16.10
2022-11-06T04:35:41.484Z,18.15
2022-11-06T04:38:18.760Z,18.45
2022-11-06T04:40:56.250Z,15.45
2022-11-06T04:43:31.365Z,15.90
2022-11-06T04:46:03.539Z,16.73
2022-11-06T04:48:34.604Z,19.45
2022-11-06T04:51:08.386Z,17.13
2022-11-06T04:53:39.684Z,19.67
2022-11-06T04:56:18.741Z,17.08
2022-11-06T04:58:50.610Z,22.17
2022-11-06T05:01:20.134Z,18.30
2022-11-06T05:03:50.607Z,19.13
2022-11-06T05:06:20.057Z,16.30
2022-11-06T05:09:02.958Z,16.45
2022-11-06T05:11:31.969Z,15.93
2022-11-06T05:14:01.780Z,19.98
2022-11-06T05:16:30.867Z,22.85
2022-11-06T05:19:01.423Z,16.90
2022-11-06T05:21:48.225Z,21.30
2022-11-06T05:24:17.946Z,17.20
2022-11-06T05:26:47.290Z,17.85
2022-11-06T05:29:16.930Z,17.00
2022-11-06T05:31:46.086Z,19.25
2022-11-06T05:34:16.858Z,19.73
2022-11-06T05:36:45.879Z,19.85
2022-11-06T05:39:16.184Z,18.52
2022-11-06T05:41:45.868Z,20.35
2022-11-06T05:44:15.190Z,19.02
2022-11-06T05:46:49.204Z,17.98
2022-11-06T05:49:20.702Z,17.75
2022-11-06T05:51:50.030Z,18.80
2022-11-06T05:54:19.267Z,25.38
2022-11-06T05:56:48.925Z,17.90
2022-11-06T05:59:18.391Z,17.92
2022-11-06T06:01:48.070Z,17.67
2022-11-06T06:04:18.066Z,25.88
2022-11-06T06:06:48.948Z,19.08
2022-11-06T06:09:18.498Z,17.65
2022-11-06T06:11:47.932Z,18.45
2022-11-06T06:14:17.543Z,17.00
2022-11-06T06:16:47.876Z,17.25
2022-11-06T06:19:17.169Z,16.33
2022-11-06T06:21:47.020Z,16.88
2022-11-06T06:24:18.527Z,16.67
2022-11-06T06:26:48.294Z,17.63
2022-11-06T06:29:17.767Z,18.17
2022-11-06T06:31:47.097Z,17.42
2022-11-06T06:34:16.444Z,16.88
2022-11-06T06:36:46.286Z,16.15
2022-11-06T06:39:15.334Z,17.17
2022-11-06T06:41:46.140Z,18.58
2022-11-06T06:44:16.047Z,18.73
2022-11-06T06:46:45.302Z,20.73
2022-11-06T06:49:14.782Z,19.40
2022-11-06T06:51:52.486Z,19.33
2022-11-06T06:54:21.723Z,17.25
2022-11-06T06:56:59.542Z,17.63
2022-11-06T06:59:33.765Z,19.00
2022-11-06T07:02:03.378Z,20.38
2022-11-06T07:04:33.070Z,18.98
2022-11-06T07:07:02.364Z,17.33
2022-11-06T07:09:39.672Z,20.27
2022-11-06T07:12:10.469Z,18.25
2022-11-06T07:14:42.191Z,17.02
2022-11-06T07:17:18.493Z,18.48
2022-11-06T07:19:50.036Z,18.75
2022-11-06T07:22:25.266Z,18.30
2022-11-06T07:25:04.768Z,20.80
2022-11-06T07:27:41.563Z,19.08
2022-11-06T07:30:12.324Z,18.98
2022-11-06T07:32:41.624Z,19.33
2022-11-06T07:35:39.011Z,20.92
2022-11-06T07:38:09.660Z,18.13
2022-11-06T07:40:38.662Z,18.52
2022-11-06T07:43:14.159Z,17.75
2022-11-06T07:45:43.263Z,18.88
2022-11-06T07:48:12.984Z,14.10
2022-11-06T07:50:42.263Z,17.45
2022-11-06T07:53:11.966Z,18.92
2022-11-06T07:55:42.555Z,17.15
2022-11-06T07:58:13.333Z,17.30
2022-11-06T08:00:42.326Z,17.65
2022-11-06T08:03:11.252Z,17.50
2022-11-06T08:05:40.264Z,16.23
2022-11-06T08:08:09.666Z,15.90
2022-11-06T08:10:43.374Z,15.77
2022-11-06T08:15:43.503Z,16.30
2022-11-06T08:18:14.160Z,18.00
2022-11-06T08:20:43.193Z,15.70
2022-11-06T08:23:13.818Z,16.25
2022-11-06T08:25:43.335Z,17.80
2022-11-06T08:28:14.070Z,16.35
2022-11-06T08:30:43.524Z,17.98
2022-11-06T08:33:13.362Z,16.65
2022-11-06T08:35:42.721Z,16.30
2022-11-06T08:38:12.217Z,16.50
2022-11-06T08:40:41.776Z,18.10
2022-11-06T08:43:13.714Z,15.55
2022-11-06T08:45:47.308Z,18.67
2022-11-06T08:48:16.333Z,16.75
2022-11-06T08:50:45.469Z,16.88
2022-11-06T08:53:14.910Z,18.95
2022-11-06T08:55:44.976Z,16.67
2022-11-06T08:58:16.810Z,15.05
2022-11-06T09:00:46.909Z,16.50
2022-11-06T09:03:18.280Z,14.45
2022-11-06T09:05:47.639Z,15.75
2022-11-06T09:08:16.884Z,15.35
2022-11-06T09:11:05.697Z,15.13
2022-11-06T09:13:36.225Z,17.42
2022-11-06T09:16:10.043Z,15.25
2022-11-06T09:18:41.898Z,16.92
2022-11-06T09:21:11.461Z,17.63
2022-11-06T09:23:40.550Z,18.48
2022-11-06T09:26:12.905Z,16.85
2022-11-06T09:28:43.462Z,17.40
2022-11-06T09:31:12.587Z,17.88
2022-11-06T09:33:41.622Z,16.52
2022-11-06T09:36:10.946Z,15.23
2022-11-06T09:38:40.282Z,16.35
2022-11-06T09:41:22.733Z,19.27
2022-11-06T09:44:13.842Z,17.75
2022-11-06T09:46:46.740Z,15.73
2022-11-06T09:49:22.142Z,15.65
2022-11-06T09:52:00.241Z,14.85
2022-11-06T09:54:32.552Z,15.88
2022-11-06T09:57:06.978Z,15.50
2022-11-06T09:59:41.499Z,15.10
2022-11-06T10:02:26.112Z,16.95
2022-11-06T10:05:04.752Z,16.08
2022-11-06T10:07:36.796Z,15.00
2022-11-06T10:10:08.622Z,16.05
2022-11-06T10:12:54.841Z,18.00
2022-11-06T10:15:29.454Z,15.75
2022-11-06T10:18:06.808Z,16.17
2022-11-06T10:20:42.868Z,17.92
2022-11-06T10:23:20.496Z,17.35
2022-11-06T10:26:04.512Z,17.48
2022-11-06T10:29:02.489Z,17.02
2022-11-06T10:31:39.362Z,16.73
2022-11-06T10:34:11.826Z,16.92
2022-11-06T10:36:49.915Z,17.50
2022-11-06T10:39:26.237Z,18.85
2022-11-06T10:42:01.950Z,19.10
2022-11-06T10:45:17.459Z,17.23
2022-11-06T10:47:53.734Z,16.20
2022-11-06T10:50:36.258Z,16.55
2022-11-06T10:53:27.274Z,19.20
2022-11-06T10:56:17.043Z,16.10
2022-11-06T10:58:53.480Z,17.90
2022-11-06T11:01:22.705Z,16.40
2022-11-06T11:03:54.010Z,16.20
2022-11-06T11:06:26.200Z,17.02
2022-11-06T11:08:58.399Z,17.65
2022-11-06T11:11:29.442Z,16.92
2022-11-06T11:14:24.952Z,20.38
2022-11-06T11:16:55.731Z,17.30
2022-11-06T11:19:34.297Z,14.90
2022-11-06T11:22:06.105Z,16.70
2022-11-06T11:24:38.027Z,18.30
2022-11-06T11:27:08.740Z,17.50
2022-11-06T11:29:50.703Z,16.25
2022-11-06T11:32:23.079Z,16.95
2022-11-06T11:34:57.275Z,17.55
2022-11-06T11:37:29.721Z,17.63
2022-11-06T11:40:28.342Z,17.13
2022-11-06T11:43:22.970Z,16.70
2022-11-06T11:46:24.308Z,16.25
2022-11-06T11:48:57.876Z,17.90
2022-11-06T11:51:38.250Z,15.52
2022-11-06T11:54:29.521Z,19.05
2022-11-06T11:57:06.347Z,16.90
2022-11-06T11:59:44.764Z,17.48
2022-11-06T12:02:26.477Z,15.25
2022-11-06T12:05:44.294Z,15.75
2022-11-06T12:08:28.851Z,17.63
2022-11-06T12:11:04.290Z,17.08
2022-11-06T12:13:33.800Z,16.35
2022-11-06T12:16:07.013Z,18.65
2022-11-06T12:18:44.665Z,17.35
2022-11-06T12:21:19.139Z,18.05
2022-11-06T12:23:58.721Z,16.67
2022-11-06T12:26:33.133Z,18.58
2022-11-06T12:29:09.000Z,19.95
2022-11-06T12:31:42.906Z,17.90
2022-11-06T12:37:04.217Z,17.08
2022-11-06T12:40:08.192Z,17.60
2022-11-06T12:42:38.221Z,18.60
2022-11-06T12:45:17.225Z,17.58
2022-11-06T12:47:56.965Z,16.92
2022-11-06T12:56:34.150Z,18.92
2022-11-06T12:59:30.873Z,16.65
2022-11-06T13:02:14.877Z,18.98
2022-11-06T13:04:55.855Z,15.90
2022-11-06T13:07:52.118Z,19.63
2022-11-06T13:10:34.904Z,17.75
2022-11-06T13:13:29.534Z,19.83
2022-11-06T13:16:08.106Z,19.08
2022-11-06T13:18:47.905Z,18.00
2022-11-06T13:21:26.877Z,18.85
2022-11-06T13:24:00.147Z,18.88
2022-11-06T13:26:36.496Z,20.30
2022-11-06T13:29:13.525Z,20.45
2022-11-06T13:31:46.754Z,20.30
2022-11-06T13:34:24.151Z,19.83
2022-11-06T13:36:54.936Z,21.65
2022-11-06T13:39:33.587Z,18.48
2022-11-06T13:42:05.896Z,21.83
2022-11-06T13:44:37.424Z,20.55
2022-11-06T13:47:14.046Z,19.10
2022-11-06T13:49:53.878Z,21.33
2022-11-06T13:52:32.634Z,21.42
2022-11-06T13:55:13.541Z,20.75
2022-11-06T13:58:06.573Z,19.23
2022-11-06T14:00:48.522Z,17.60
2022-11-06T14:03:54.065Z,20.17
2022-11-06T14:06:25.266Z,20.25
2022-11-06T14:09:40.231Z,21.40
2022-11-06T14:12:19.747Z,18.70
2022-11-06T14:14:49.887Z,22.17
2022-11-06T14:17:28.849Z,22.48
2022-11-06T14:20:07.031Z,19.50
2022-11-06T14:22:43.011Z,19.88
2022-11-06T14:26:04.517Z,20.88
2022-11-06T14:31:14.220Z,17.88
2022-11-06T14:34:02.597Z,18.20
2022-11-06T14:36:35.403Z,18.25
2022-11-06T14:39:13.940Z,16.83
2022-11-06T14:41:59.731Z,15.23
2022-11-06T14:44:57.938Z,19.10
2022-11-06T14:47:39.704Z,15.98
2022-11-06T14:50:26.780Z,15.73
2022-11-06T14:52:59.445Z,18.27
2022-11-06T14:55:39.828Z,16.42
2022-11-06T14:58:23.686Z,16.63
2022-11-06T15:00:55.751Z,15.65
2022-11-06T15:08:51.512Z,15.15
2022-11-06T15:11:51.509Z,16.45
2022-11-06T15:14:57.081Z,17.10
2022-11-06T15:17:30.127Z,16.33
2022-11-06T15:20:28.543Z,16.73
2022-11-06T15:23:13.065Z,21.55
2022-11-06T15:26:02.074Z,17.38
2022-11-06T15:28:39.398Z,19.27
2022-11-06T15:31:15.469Z,16.73
2022-11-06T15:33:55.883Z,17.45
2022-11-06T15:36:27.776Z,17.58
2022-11-06T15:38:57.568Z,19.02
2022-11-06T15:41:28.465Z,17.85
2022-11-06T15:46:35.610Z,17.98
2022-11-06T15:49:26.863Z,16.95
2022-11-06T15:52:00.149Z,19.23
2022-11-06T15:54:39.133Z,17.77
2022-11-06T15:57:22.747Z,16.52
2022-11-06T16:00:09.354Z,21.58
2022-11-06T16:02:49.046Z,17.80
2022-11-06T16:05:19.706Z,17.67
2022-11-06T16:07:59.836Z,20.42
2022-11-06T16:10:30.044Z,17.77
2022-11-06T16:12:59.657Z,19.80
2022-11-06T16:15:50.798Z,19.45
2022-11-06T16:18:27.874Z,17.35
2022-11-06T16:21:00.558Z,17.83
2022-11-06T16:23:38.813Z,17.95
2022-11-06T16:26:11.773Z,17.75
2022-11-06T16:29:06.918Z,17.75
2022-11-06T16:31:41.276Z,17.92
2022-11-06T16:34:22.766Z,19.17
2022-11-06T16:37:00.258Z,18.23
2022-11-06T16:39:52.896Z,19.15
2022-11-06T16:42:28.853Z,16.38
2022-11-06T16:45:17.963Z,16.83
2022-11-06T16:48:20.095Z,19.02
2022-11-06T16:51:00.196Z,17.05
2022-11-06T16:53:34.286Z,18.35
2022-11-06T16:56:07.095Z,17.40
2022-11-06T16:58:49.994Z,19.00
2022-11-06T17:01:21.019Z,17.83
2022-11-06T17:03:55.357Z,20.83
2022-11-06T17:06:28.599Z,17.65
2022-11-06T17:09:09.651Z,17.33
2022-11-06T17:11:39.298Z,17.45
2022-11-06T17:14:19.671Z,17.10
2022-11-06T17:16:51.455Z,19.10
2022-11-06T17:19:23.845Z,17.40
2022-11-06T17:21:55.816Z,18.85
2022-11-06T17:24:40.828Z,17.30
2022-11-06T17:27:10.284Z,16.67
2022-11-06T17:29:39.785Z,17.15
2022-11-06T17:32:09.954Z,14.55
2022-11-06T17:34:39.323Z,15.43
2022-11-06T17:37:22.483Z,15.50
2022-11-06T17:39:52.181Z,15.00
2022-11-06T17:42:24.380Z,15.20
2022-11-06T17:44:53.349Z,15.65
2022-11-06T17:47:22.442Z,15.50
2022-11-06T17:49:51.461Z,15.95
2022-11-06T17:52:22.176Z,15.25
2022-11-06T17:54:51.804Z,16.52
2022-11-06T17:57:24.199Z,16.65
2022-11-06T18:00:00.106Z,15.90
2022-11-06T18:02:59.168Z,17.50
2022-11-06T18:05:23.302Z,16.95
2022-11-06T18:07:54.622Z,16.58
2022-11-06T18:10:29.882Z,16.85
2022-11-06T18:13:08.400Z,16.45
2022-11-06T18:15:39.535Z,16.73
2022-11-06T18:18:08.990Z,18.70
2022-11-06T18:20:38.920Z,17.25
2022-11-06T18:23:10.316Z,16.58
2022-11-06T18:25:40.071Z,17.50
2022-11-06T18:28:11.403Z,16.85
2022-11-06T18:30:44.049Z,17.27
2022-11-06T18:33:17.358Z,17.08
2022-11-06T18:38:23.297Z,19.52
2022-11-06T18:40:55.270Z,16.17
2022-11-06T18:43:27.429Z,17.02
2022-11-06T18:45:57.620Z,17.98
2022-11-06T18:48:29.468Z,21.50
2022-11-06T18:50:59.587Z,19.02
2022-11-06T18:53:33.266Z,19.52
2022-11-06T18:56:02.580Z,20.38
2022-11-06T18:58:31.601Z,21.10
2022-11-06T19:01:06.591Z,18.33
2022-11-06T19:03:37.230Z,19.88
2022-11-06T19:06:10.629Z,20.55
2022-11-06T19:08:43.540Z,18.38
2022-11-06T19:11:17.878Z,20.03
2022-11-06T19:13:48.770Z,19.58
2022-11-06T19:16:22.389Z,18.88
2022-11-06T19:21:31.307Z,20.45
2022-11-06T19:24:09.855Z,19.23
2022-11-06T19:26:42.117Z,19.98
2022-11-06T19:29:13.781Z,21.40
2022-11-06T19:31:47.050Z,21.13
2022-11-06T19:34:22.209Z,18.33
2022-11-06T19:37:03.394Z,19.37
2022-11-06T19:39:39.277Z,20.25
2022-11-06T19:42:46.184Z,20.13
2022-11-06T19:46:06.380Z,19.63
2022-11-06T19:48:45.200Z,20.85
2022-11-06T19:51:18.965Z,20.55
2022-11-06T19:53:52.761Z,18.92
2022-11-06T20:02:28.589Z,20.17
2022-11-06T20:06:43.844Z,19.92
2022-11-06T20:08:26.900Z,20.13
2022-11-06T20:11:04.590Z,21.40
2022-11-06T20:14:19.838Z,20.52
2022-11-06T20:17:00.248Z,19.23
2022-11-06T20:19:33.972Z,21.85
2022-11-06T20:22:19.215Z,18.55
2022-11-06T20:25:17.452Z,19.08
2022-11-06T20:27:47.670Z,19.98
2022-11-06T20:30:24.489Z,21.27
2022-11-06T20:33:02.623Z,18.73
2022-11-06T20:35:45.268Z,19.75
2022-11-06T20:38:56.812Z,20.67
2022-11-06T20:42:19.367Z,17.92
2022-11-06T20:45:10.868Z,20.05
2022-11-06T20:47:51.450Z,19.40
2022-11-06T20:50:25.983Z,20.33
2022-11-06T20:53:07.980Z,20.05
2022-11-06T20:55:42.311Z,20.50
2022-11-06T20:58:16.798Z,19.20
2022-11-06T21:01:19.244Z,21.08
2022-11-06T21:04:08.971Z,20.25
2022-11-06T21:06:39.267Z,19.20
2022-11-06T21:09:16.824Z,19.25
2022-11-06T21:11:46.765Z,19.13
2022-11-06T21:14:21.652Z,18.30
2022-11-06T21:16:53.467Z,20.45
2022-11-06T21:20:00.312Z,20.63
2022-11-06T21:22:31.860Z,17.15
2022-11-06T21:25:05.000Z,19.67
2022-11-06T21:27:41.977Z,20.00
2022-11-06T21:30:18.399Z,18.92
2022-11-06T21:32:56.055Z,20.58
2022-11-06T21:35:32.118Z,19.63
2022-11-06T21:38:08.952Z,19.35
2022-11-06T21:40:40.753Z,20.05
2022-11-06T21:43:17.853Z,20.40
2022-11-06T21:45:49.121Z,19.52
2022-11-06T21:48:47.206Z,21.70
2022-11-06T21:51:26.458Z,19.08
2022-11-06T21:57:11.023Z,18.48
2022-11-06T21:59:43.036Z,18.83
2022-11-06T22:02:13.446Z,18.67
2022-11-06T22:04:43.968Z,18.90
2022-11-06T22:07:17.322Z,19.17
2022-11-06T22:09:49.164Z,20.15
2022-11-06T22:12:21.859Z,18.60
2022-11-06T22:14:51.286Z,19.30
2022-11-06T22:17:21.326Z,19.27
2022-11-06T22:19:51.023Z,18.25
2022-11-06T22:22:23.533Z,19.65
2022-11-06T22:24:52.960Z,19.85
2022-11-06T22:27:29.515Z,19.65
2022-11-06T22:30:11.479Z,18.63
2022-11-06T22:32:43.682Z,18.77
2022-11-06T22:35:13.100Z,18.80
2022-11-06T22:37:44.341Z,17.70
2022-11-06T22:40:14.158Z,19.52
2022-11-06T22:42:49.440Z,19.80
2022-11-06T22:45:20.602Z,18.65
2022-11-06T22:47:50.250Z,17.63
2022-11-06T22:50:19.663Z,18.40
2022-11-06T22:52:51.679Z,19.40
2022-11-06T22:55:21.132Z,18.42
2022-11-06T22:57:51.651Z,18.63
2022-11-06T23:00:24.416Z,18.17
2022-11-06T23:02:54.042Z,20.45
2022-11-06T23:05:23.983Z,20.92
2022-11-06T23:07:54.821Z,18.63
2022-11-06T23:10:29.852Z,19.67
2022-11-06T23:12:59.910Z,18.65
2022-11-06T23:15:29.478Z,18.42
2022-11-06T23:17:59.641Z,18.70
2022-11-06T23:20:33.435Z,19.15
2022-11-06T23:25:36.269Z,19.17
2022-11-06T23:28:06.448Z,19.85
2022-11-06T23:30:36.592Z,18.83
2022-11-06T23:33:05.904Z,19.40
2022-11-06T23:35:35.548Z,17.83
2022-11-06T23:38:05.937Z,20.55
2022-11-06T23:40:35.051Z,19.60
2022-11-06T23:43:04.584Z,19.48
2022-11-06T23:45:54.983Z,19.48
2022-11-06T23:48:25.244Z,21.63
2022-11-06T23:50:54.840Z,20.83
2022-11-06T23:53:25.544Z,18.42
2022-11-06T23:55:54.805Z,21.10
2022-11-06T23:58:25.310Z,20.38
